createdAt,value
2023-03-07T00:00:26.635Z,41.90
2023-03-07T00:02:54.494Z,41.86
2023-03-07T00:05:22.309Z,41.97
2023-03-07T00:07:50.054Z,41.76
2023-03-07T00:10:18.154Z,41.91
2023-03-07T00:12:45.994Z,41.91
2023-03-07T00:15:13.968Z,41.97
2023-03-07T00:17:42.191Z,41.83
2023-03-07T00:20:14.151Z,41.88
2023-03-07T00:22:44.105Z,41.97
2023-03-07T00:25:11.808Z,41.96
2023-03-07T00:27:40.118Z,41.87
2023-03-07T00:30:10.033Z,41.87
2023-03-07T00:32:38.554Z,42.02
2023-03-07T00:35:07.053Z,41.86
2023-03-07T00:37:34.912Z,42.01
2023-03-07T00:40:02.687Z,41.97
2023-03-07T00:42:30.432Z,41.91
2023-03-07T00:44:58.133Z,41.92
2023-03-07T00:47:25.848Z,41.90
2023-03-07T00:49:54.243Z,42.09
2023-03-07T00:52:22.168Z,41.92
2023-03-07T00:54:50.151Z,41.96
2023-03-07T00:57:18.056Z,42.02
2023-03-07T00:59:46.884Z,41.93
2023-03-07T01:02:15.149Z,42.03
2023-03-07T01:04:42.934Z,42.14
2023-03-07T01:07:10.790Z,42.03
2023-03-07T01:09:39.162Z,42.20
2023-03-07T01:12:07.683Z,42.33
2023-03-07T01:14:35.714Z,42.27
2023-03-07T01:17:04.039Z,42.36
2023-03-07T01:19:32.068Z,42.72
2023-03-07T01:22:01.026Z,42.61
2023-03-07T01:24:28.909Z,42.85
2023-03-07T01:26:57.187Z,43.28
2023-03-07T01:29:25.104Z,43.26
2023-03-07T01:31:53.615Z,43.13
2023-03-07T01:34:21.986Z,43.41
2023-03-07T01:36:51.854Z,43.30
2023-03-07T01:39:19.744Z,43.22
2023-03-07T01:41:52.216Z,43.26
2023-03-07T01:44:26.086Z,43.25
2023-03-07T01:47:00.473Z,43.08
2023-03-07T01:49:46.137Z,43.21
2023-03-07T01:52:32.551Z,43.29
2023-03-07T01:55:11.760Z,43.35
2023-03-07T01:57:44.696Z,43.47
2023-03-07T02:00:25.860Z,43.98
2023-03-07T02:03:10.561Z,44.31
2023-03-07T02:05:59.640Z,44.19
2023-03-07T02:08:30.510Z,44.49
2023-03-07T02:10:58.448Z,44.88
2023-03-07T02:13:26.329Z,44.77
2023-03-07T02:15:55.215Z,44.90
2023-03-07T02:18:28.480Z,45.15
2023-03-07T02:21:09.324Z,45.41
2023-03-07T02:23:49.089Z,45.40
2023-03-07T02:26:22.945Z,45.41
2023-03-07T02:28:51.784Z,45.83
2023-03-07T02:31:19.743Z,46.03
2023-03-07T02:33:47.585Z,45.99
2023-03-07T02:36:22.190Z,45.75
2023-03-07T02:39:06.819Z,45.52
2023-03-07T02:41:36.908Z,45.53
2023-03-07T02:44:11.774Z,45.83
2023-03-07T02:46:39.792Z,45.84
2023-03-07T02:49:07.710Z,45.79
2023-03-07T02:51:35.606Z,45.68
2023-03-07T02:54:03.521Z,45.69
2023-03-07T02:56:31.242Z,46.04
2023-03-07T02:58:59.015Z,45.79
2023-03-07T03:01:27.207Z,45.93
2023-03-07T03:03:56.077Z,45.81
2023-03-07T03:06:24.331Z,46.04
2023-03-07T03:08:52.610Z,46.08
2023-03-07T03:11:20.715Z,46.22
2023-03-07T03:13:49.062Z,46.44
2023-03-07T03:16:17.320Z,46.32
2023-03-07T03:18:45.113Z,46.41
2023-03-07T03:21:14.424Z,46.04
2023-03-07T03:23:42.222Z,46.37
2023-03-07T03:26:11.780Z,46.33
2023-03-07T03:28:40.371Z,46.06
2023-03-07T03:31:14.897Z,46.16
2023-03-07T03:33:44.597Z,45.89
2023-03-07T03:36:16.909Z,45.96
2023-03-07T03:38:47.217Z,45.81
2023-03-07T03:41:16.052Z,45.95
2023-03-07T03:43:45.460Z,45.73
2023-03-07T03:46:13.457Z,45.85
2023-03-07T03:48:41.371Z,45.78
2023-03-07T03:51:14.623Z,45.97
2023-03-07T03:53:42.909Z,45.68
2023-03-07T03:56:30.444Z,45.66
2023-03-07T03:59:16.341Z,45.89
2023-03-07T04:01:44.355Z,45.53
2023-03-07T04:04:12.602Z,45.53
2023-03-07T04:06:40.843Z,45.60
2023-03-07T04:09:10.139Z,45.65
2023-03-07T04:11:41.698Z,45.53
2023-03-07T04:14:09.566Z,45.48
2023-03-07T04:16:37.602Z,45.50
2023-03-07T04:19:05.682Z,45.37
2023-03-07T04:21:33.592Z,45.53
2023-03-07T04:24:01.842Z,45.56
2023-03-07T04:26:32.021Z,45.39
2023-03-07T04:28:59.960Z,45.50
2023-03-07T04:31:33.559Z,45.44
2023-03-07T04:34:03.880Z,45.49
2023-03-07T04:36:32.603Z,45.55
2023-03-07T04:39:00.524Z,45.22
2023-03-07T04:41:29.225Z,45.31
2023-03-07T04:44:17.066Z,45.27
2023-03-07T04:46:44.917Z,45.30
2023-03-07T04:49:13.228Z,45.35
2023-03-07T04:51:43.979Z,45.17
2023-03-07T04:54:12.726Z,45.02
2023-03-07T04:56:41.117Z,45.34
2023-03-07T04:59:10.977Z,45.17
2023-03-07T05:01:39.251Z,44.94
2023-03-07T05:04:07.397Z,44.94
2023-03-07T05:06:35.644Z,45.10
2023-03-07T05:09:04.803Z,45.10
2023-03-07T05:11:32.761Z,45.09
2023-03-07T05:14:00.877Z,45.16
2023-03-07T05:16:28.712Z,45.10
2023-03-07T05:18:56.538Z,45.02
2023-03-07T05:21:24.319Z,45.04
2023-03-07T05:23:52.059Z,45.05
2023-03-07T05:26:19.950Z,44.60
2023-03-07T05:28:49.427Z,44.86
2023-03-07T05:31:18.570Z,44.82
2023-03-07T05:33:47.321Z,44.90
2023-03-07T05:36:16.263Z,44.71
2023-03-07T05:38:44.395Z,44.78
2023-03-07T05:41:12.971Z,44.75
2023-03-07T05:43:41.205Z,44.65
2023-03-07T05:46:09.285Z,44.68
2023-03-07T05:48:37.355Z,44.56
2023-03-07T05:51:05.985Z,44.45
2023-03-07T05:53:33.998Z,44.35
2023-03-07T05:56:02.437Z,44.34
2023-03-07T05:58:31.253Z,44.28
2023-03-07T06:01:03.714Z,44.37
2023-03-07T06:03:32.721Z,44.26
2023-03-07T06:06:00.626Z,44.20
2023-03-07T06:08:28.486Z,44.11
2023-03-07T06:10:56.570Z,44.16
2023-03-07T06:13:26.410Z,44.09
2023-03-07T06:15:55.621Z,43.97
2023-03-07T06:18:25.765Z,43.85
2023-03-07T06:21:02.307Z,43.78
2023-03-07T06:23:36.175Z,43.93
2023-03-07T06:26:08.513Z,44.06
2023-03-07T06:28:36.976Z,43.94
2023-03-07T06:31:10.737Z,43.54
2023-03-07T06:33:39.522Z,43.76
2023-03-07T06:36:10.081Z,43.66
2023-03-07T06:38:41.335Z,43.84
2023-03-07T06:41:09.339Z,43.77
2023-03-07T06:43:37.684Z,43.69
2023-03-07T06:46:06.523Z,43.75
2023-03-07T06:48:38.039Z,43.62
2023-03-07T06:51:09.835Z,43.75
2023-03-07T06:53:41.267Z,43.69
2023-03-07T06:56:09.558Z,43.60
2023-03-07T06:58:38.939Z,43.59
2023-03-07T07:01:14.899Z,43.49
2023-03-07T07:03:42.929Z,43.24
2023-03-07T07:06:12.336Z,43.37
2023-03-07T07:08:40.399Z,43.17
2023-03-07T07:11:13.463Z,43.31
2023-03-07T07:13:41.598Z,43.37
2023-03-07T07:16:12.746Z,43.24
2023-03-07T07:18:42.521Z,43.21
2023-03-07T07:21:11.986Z,43.06
2023-03-07T07:23:40.064Z,43.15
2023-03-07T07:26:09.195Z,43.07
2023-03-07T07:28:37.607Z,43.10
2023-03-07T07:31:07.388Z,43.01
2023-03-07T07:33:36.166Z,42.97
2023-03-07T07:36:08.921Z,42.79
2023-03-07T07:38:37.400Z,42.93
2023-03-07T07:41:07.099Z,42.82
2023-03-07T07:43:35.447Z,42.88
2023-03-07T07:46:15.903Z,42.43
2023-03-07T07:48:48.081Z,42.64
2023-03-07T07:51:17.199Z,42.71
2023-03-07T07:53:45.244Z,42.55
2023-03-07T07:56:13.573Z,42.61
2023-03-07T07:58:41.685Z,42.47
2023-03-07T08:01:29.994Z,41.85
2023-03-07T08:03:59.313Z,42.25
2023-03-07T08:06:28.419Z,42.06
2023-03-07T08:08:59.953Z,42.31
2023-03-07T08:11:29.506Z,42.39
2023-03-07T08:13:58.692Z,42.30
2023-03-07T08:16:27.949Z,42.16
2023-03-07T08:18:59.583Z,41.88
2023-03-07T08:21:28.045Z,42.08
2023-03-07T08:23:56.592Z,41.82
2023-03-07T08:26:25.483Z,41.68
2023-03-07T08:28:53.724Z,41.53
2023-03-07T08:31:26.615Z,41.34
2023-03-07T08:33:56.547Z,41.41
2023-03-07T08:36:24.561Z,41.61
2023-03-07T08:38:52.847Z,41.46
2023-03-07T08:41:22.983Z,41.20
2023-03-07T08:43:51.510Z,41.38
2023-03-07T08:46:19.796Z,40.90
2023-03-07T08:48:49.485Z,40.82
2023-03-07T08:51:20.733Z,41.31
2023-03-07T08:53:50.638Z,41.34
2023-03-07T08:56:20.611Z,41.07
2023-03-07T08:58:48.505Z,40.63
2023-03-07T09:01:22.985Z,40.48
2023-03-07T09:03:51.207Z,40.50
2023-03-07T09:06:21.421Z,40.24
2023-03-07T09:08:50.442Z,40.02
2023-03-07T09:11:18.990Z,40.64
2023-03-07T09:13:52.323Z,39.98
2023-03-07T09:16:22.332Z,39.91
2023-03-07T09:18:51.092Z,40.33
2023-03-07T09:21:18.965Z,39.90
2023-03-07T09:23:46.917Z,40.30
2023-03-07T09:26:16.595Z,40.15
2023-03-07T09:28:44.684Z,40.03
2023-03-07T09:31:15.008Z,40.07
2023-03-07T09:33:46.527Z,40.08
2023-03-07T09:36:15.448Z,39.80
2023-03-07T09:38:48.035Z,39.88
2023-03-07T09:41:33.749Z,39.46
2023-03-07T09:44:34.010Z,39.57
2023-03-07T09:47:43.223Z,39.54
2023-03-07T09:50:29.445Z,39.92
2023-03-07T09:53:04.451Z,39.98
2023-03-07T09:55:58.344Z,39.58
2023-03-07T09:58:28.408Z,39.53
2023-03-07T10:01:24.090Z,39.65
2023-03-07T10:04:06.350Z,39.18
2023-03-07T10:06:42.970Z,39.40
2023-03-07T10:09:24.716Z,39.28
2023-03-07T10:12:30.092Z,39.49
2023-03-07T10:15:45.894Z,39.22
2023-03-07T10:18:45.155Z,39.04
2023-03-07T10:21:27.990Z,38.85
2023-03-07T10:24:20.346Z,38.46
2023-03-07T10:26:53.812Z,38.53
2023-03-07T10:29:28.795Z,38.36
2023-03-07T10:32:23.312Z,38.05
2023-03-07T10:35:02.958Z,37.98
2023-03-07T10:37:56.896Z,37.79
2023-03-07T10:40:41.570Z,37.79
2023-03-07T10:43:23.635Z,37.78
2023-03-07T10:46:02.258Z,37.67
2023-03-07T10:48:31.623Z,37.73
2023-03-07T10:51:41.889Z,37.03
2023-03-07T10:54:17.086Z,37.04
2023-03-07T10:57:10.949Z,37.01
2023-03-07T10:59:43.678Z,37.24
2023-03-07T11:02:38.562Z,37.05
2023-03-07T11:05:31.336Z,36.88
2023-03-07T11:08:01.362Z,36.63
2023-03-07T11:10:40.164Z,36.41
2023-03-07T11:13:17.797Z,36.76
2023-03-07T11:15:46.840Z,36.88
2023-03-07T11:18:39.089Z,36.77
2023-03-07T11:21:25.825Z,36.73
2023-03-07T11:24:18.423Z,36.58
2023-03-07T11:26:46.244Z,36.58
2023-03-07T11:29:14.969Z,36.27
2023-03-07T11:32:05.923Z,36.28
2023-03-07T11:34:59.691Z,36.08
2023-03-07T11:37:43.619Z,36.10
2023-03-07T11:40:20.341Z,35.96
2023-03-07T11:43:04.582Z,35.40
2023-03-07T11:46:35.999Z,35.70
2023-03-07T11:49:55.240Z,35.86
2023-03-07T11:52:26.179Z,36.10
2023-03-07T11:55:23.128Z,35.39
2023-03-07T11:58:38.576Z,35.63
2023-03-07T12:01:46.529Z,35.54
2023-03-07T12:04:50.032Z,35.90
2023-03-07T12:07:53.686Z,35.75
2023-03-07T12:10:47.059Z,35.90
2023-03-07T12:13:44.898Z,35.59
2023-03-07T12:16:34.469Z,35.42
2023-03-07T12:19:38.576Z,35.65
2023-03-07T12:22:29.749Z,35.78
2023-03-07T12:25:21.893Z,35.71
2023-03-07T12:28:17.998Z,35.44
2023-03-07T12:31:12.797Z,35.26
2023-03-07T12:34:34.437Z,35.33
2023-03-07T12:37:18.241Z,35.63
2023-03-07T12:40:01.073Z,35.60
2023-03-07T12:42:44.768Z,35.25
2023-03-07T12:45:27.254Z,35.03
2023-03-07T12:48:07.601Z,34.88
2023-03-07T12:50:52.728Z,34.90
2023-03-07T12:53:56.522Z,34.87
2023-03-07T12:56:53.682Z,35.02
2023-03-07T12:59:22.724Z,34.97
2023-03-07T13:02:29.730Z,34.15
2023-03-07T13:05:04.443Z,34.86
2023-03-07T13:07:35.334Z,34.50
2023-03-07T13:10:14.456Z,34.67
2023-03-07T13:12:42.640Z,34.62
2023-03-07T13:15:19.482Z,34.42
2023-03-07T13:17:48.026Z,34.60
2023-03-07T13:20:28.181Z,34.34
2023-03-07T13:23:10.971Z,34.22
2023-03-07T13:25:48.523Z,34.04
2023-03-07T13:28:33.924Z,33.85
2023-03-07T13:31:17.152Z,33.70
2023-03-07T13:33:45.476Z,34.38
2023-03-07T13:36:40.612Z,33.74
2023-03-07T13:39:38.366Z,33.86
2023-03-07T13:42:50.355Z,33.67
2023-03-07T13:45:40.704Z,33.94
2023-03-07T13:48:15.835Z,34.00
2023-03-07T13:51:08.200Z,33.77
2023-03-07T13:53:54.405Z,33.76
2023-03-07T13:56:32.239Z,33.18
2023-03-07T13:59:23.508Z,33.19
2023-03-07T14:02:07.538Z,33.25
2023-03-07T14:04:46.286Z,33.43
2023-03-07T14:07:33.360Z,33.25
2023-03-07T14:10:24.838Z,33.25
2023-03-07T14:14:11.179Z,33.15
2023-03-07T14:17:08.728Z,33.39
2023-03-07T14:23:56.469Z,33.31
2023-03-07T14:26:40.186Z,33.52
2023-03-07T14:29:30.901Z,33.31
2023-03-07T14:32:01.279Z,33.35
2023-03-07T14:34:35.336Z,33.31
2023-03-07T14:37:12.687Z,33.33
2023-03-07T14:39:58.391Z,33.42
2023-03-07T14:43:02.290Z,33.32
2023-03-07T14:45:57.344Z,33.26
2023-03-07T14:48:54.173Z,33.63
2023-03-07T14:51:29.917Z,33.78
2023-03-07T14:54:02.005Z,33.94
2023-03-07T14:56:35.227Z,34.10
2023-03-07T14:59:05.574Z,34.26
2023-03-07T15:01:39.953Z,34.47
2023-03-07T15:04:39.029Z,34.80
2023-03-07T15:07:21.203Z,34.65
2023-03-07T15:09:50.059Z,34.68
2023-03-07T15:12:28.459Z,34.72
2023-03-07T15:15:02.356Z,34.71
2023-03-07T15:17:45.949Z,34.76
2023-03-07T15:20:22.564Z,34.46
2023-03-07T15:22:55.008Z,34.74
2023-03-07T15:25:26.519Z,34.66
2023-03-07T15:28:04.565Z,34.91
2023-03-07T15:30:38.515Z,34.61
2023-03-07T15:33:32.648Z,34.73
2023-03-07T15:36:20.186Z,34.62
2023-03-07T15:38:51.710Z,34.89
2023-03-07T15:41:37.614Z,34.70
2023-03-07T15:44:11.942Z,34.66
2023-03-07T15:46:48.869Z,34.84
2023-03-07T15:49:26.216Z,34.85
2023-03-07T15:52:00.270Z,34.78
2023-03-07T15:54:41.771Z,34.89
2023-03-07T15:57:38.723Z,35.15
2023-03-07T16:00:39.216Z,35.12
2023-03-07T16:03:30.726Z,35.13
2023-03-07T16:06:47.453Z,34.90
2023-03-07T16:09:38.752Z,34.95
2023-03-07T16:12:22.047Z,34.88
2023-03-07T16:15:16.632Z,34.81
2023-03-07T16:18:08.257Z,34.91
2023-03-07T16:20:38.964Z,35.20
2023-03-07T16:23:13.166Z,35.07
2023-03-07T16:25:43.146Z,35.01
2023-03-07T16:28:15.346Z,35.12
2023-03-07T16:30:47.419Z,35.02
2023-03-07T16:33:17.065Z,34.81
2023-03-07T16:35:48.052Z,35.12
2023-03-07T16:38:16.381Z,35.28
2023-03-07T16:40:50.428Z,35.12
2023-03-07T16:43:34.741Z,35.03
2023-03-07T16:46:10.925Z,35.09
2023-03-07T16:48:39.243Z,35.26
2023-03-07T16:51:25.751Z,35.10
2023-03-07T16:53:57.092Z,35.32
2023-03-07T16:56:32.882Z,35.00
2023-03-07T16:59:03.054Z,34.91
2023-03-07T17:01:32.573Z,35.05
2023-03-07T17:04:03.368Z,35.05
2023-03-07T17:06:39.099Z,35.05
2023-03-07T17:09:14.328Z,35.40
2023-03-07T17:11:51.805Z,35.03
2023-03-07T17:14:21.559Z,35.33
2023-03-07T17:16:54.127Z,35.25
2023-03-07T17:19:29.600Z,34.89
2023-03-07T17:22:00.578Z,35.15
2023-03-07T17:24:31.486Z,35.16
2023-03-07T17:27:03.939Z,35.13
2023-03-07T17:29:46.795Z,35.05
2023-03-07T17:32:15.634Z,35.25
2023-03-07T17:34:45.656Z,35.03
2023-03-07T17:37:13.894Z,35.26
2023-03-07T17:39:42.837Z,35.30
2023-03-07T17:42:11.931Z,34.92
2023-03-07T17:44:40.236Z,35.05
2023-03-07T17:47:08.810Z,34.98
2023-03-07T17:49:39.433Z,34.93
2023-03-07T17:52:08.634Z,35.02
2023-03-07T17:54:40.269Z,35.38
2023-03-07T17:57:08.875Z,35.31
2023-03-07T17:59:37.510Z,35.29
2023-03-07T18:02:08.817Z,35.19
2023-03-07T18:04:40.049Z,35.09
2023-03-07T18:07:11.896Z,35.42
2023-03-07T18:09:40.990Z,35.20
2023-03-07T18:12:10.668Z,35.31
2023-03-07T18:14:39.897Z,35.15
2023-03-07T18:17:09.089Z,35.31
2023-03-07T18:19:39.684Z,35.16
2023-03-07T18:22:08.408Z,35.47
2023-03-07T18:24:37.550Z,35.62
2023-03-07T18:27:09.035Z,35.54
2023-03-07T18:29:37.428Z,35.88
2023-03-07T18:32:06.702Z,35.88
2023-03-07T18:34:35.208Z,35.71
2023-03-07T18:37:05.503Z,35.63
2023-03-07T18:39:35.803Z,35.66
2023-03-07T18:42:10.129Z,35.52
2023-03-07T18:44:49.807Z,35.67
2023-03-07T18:47:20.542Z,35.67
2023-03-07T18:49:52.243Z,36.16
2023-03-07T18:52:21.664Z,35.99
2023-03-07T18:54:50.736Z,36.10
2023-03-07T18:57:20.565Z,36.00
2023-03-07T18:59:51.155Z,35.66
2023-03-07T19:02:19.369Z,36.03
2023-03-07T19:04:47.483Z,35.91
2023-03-07T19:07:15.676Z,35.90
2023-03-07T19:09:47.545Z,36.19
2023-03-07T19:12:21.520Z,36.15
2023-03-07T19:14:51.975Z,35.91
2023-03-07T19:17:20.196Z,36.20
2023-03-07T19:19:53.803Z,36.05
2023-03-07T19:22:27.060Z,35.93
2023-03-07T19:24:56.102Z,36.25
2023-03-07T19:27:32.582Z,36.22
2023-03-07T19:30:01.043Z,35.91
2023-03-07T19:32:31.121Z,36.19
2023-03-07T19:35:01.241Z,36.11
2023-03-07T19:37:30.581Z,36.35
2023-03-07T19:39:59.990Z,36.34
2023-03-07T19:42:31.306Z,36.26
2023-03-07T19:45:00.365Z,36.41
2023-03-07T19:47:30.647Z,36.38
2023-03-07T19:50:00.826Z,36.19
2023-03-07T19:52:32.502Z,36.30
2023-03-07T19:55:02.603Z,36.27
2023-03-07T19:57:31.405Z,36.19
2023-03-07T20:00:02.705Z,36.29
2023-03-07T20:02:40.168Z,36.13
2023-03-07T20:05:11.470Z,36.11
2023-03-07T20:07:40.101Z,35.96
2023-03-07T20:10:12.412Z,35.58
2023-03-07T20:12:43.409Z,35.71
2023-03-07T20:15:14.879Z,35.66
2023-03-07T20:17:43.545Z,35.69
2023-03-07T20:20:12.906Z,35.75
2023-03-07T20:22:43.047Z,35.65
2023-03-07T20:25:13.935Z,35.51
2023-03-07T20:27:43.646Z,35.63
2023-03-07T20:30:12.607Z,35.75
2023-03-07T20:32:43.099Z,35.71
2023-03-07T20:35:12.666Z,35.87
2023-03-07T20:37:44.853Z,35.53
2023-03-07T20:40:19.832Z,35.37
2023-03-07T20:42:54.840Z,35.53
2023-03-07T20:45:29.896Z,35.74
2023-03-07T20:48:18.864Z,35.61
2023-03-07T20:50:47.841Z,35.66
2023-03-07T20:53:22.930Z,35.48
2023-03-07T20:55:51.464Z,35.51
2023-03-07T20:58:19.668Z,35.69
2023-03-07T21:00:54.496Z,35.68
2023-03-07T21:03:24.188Z,35.40
2023-03-07T21:09:09.205Z,35.78
2023-03-07T21:11:56.367Z,35.41
2023-03-07T21:14:31.031Z,35.76
2023-03-07T21:17:15.751Z,35.75
2023-03-07T21:19:57.129Z,35.60
2023-03-07T21:22:44.663Z,35.66
2023-03-07T21:25:32.637Z,35.33
2023-03-07T21:28:17.206Z,35.62
2023-03-07T21:31:25.810Z,35.43
2023-03-07T21:34:07.355Z,35.80
2023-03-07T21:36:59.350Z,35.67
2023-03-07T21:39:32.772Z,35.74
2023-03-07T21:42:08.982Z,35.87
2023-03-07T21:46:18.053Z,35.65
2023-03-07T21:49:40.308Z,35.77
2023-03-07T21:51:57.409Z,36.00
2023-03-07T21:54:34.782Z,35.89
2023-03-07T21:57:25.365Z,35.94
2023-03-07T21:59:53.643Z,35.92
2023-03-07T22:02:35.501Z,35.75
2023-03-07T22:05:11.763Z,35.91
2023-03-07T22:08:29.911Z,35.66
2023-03-07T22:10:35.862Z,35.89
2023-03-07T22:13:06.724Z,35.59
2023-03-07T22:15:41.343Z,36.00
2023-03-07T22:18:10.078Z,35.73
2023-03-07T22:20:40.836Z,35.74
2023-03-07T22:23:15.697Z,35.96
2023-03-07T22:25:44.912Z,35.64
2023-03-07T22:28:17.226Z,35.72
2023-03-07T22:30:57.382Z,35.74
2023-03-07T22:33:42.150Z,35.92
2023-03-07T22:36:17.856Z,35.43
2023-03-07T22:38:56.849Z,35.76
2023-03-07T22:41:26.147Z,35.58
2023-03-07T22:43:58.544Z,35.88
2023-03-07T22:46:26.637Z,35.86
2023-03-07T22:48:58.255Z,35.78
2023-03-07T22:51:30.068Z,35.78
2023-03-07T22:53:59.313Z,35.65
2023-03-07T22:56:31.276Z,35.84
2023-03-07T22:59:01.776Z,35.73
2023-03-07T23:01:38.453Z,35.64
2023-03-07T23:04:11.240Z,35.79
2023-03-07T23:06:57.366Z,35.67
2023-03-07T23:09:28.258Z,35.73
2023-03-07T23:12:11.064Z,35.74
2023-03-07T23:14:43.705Z,35.81
2023-03-07T23:17:31.398Z,36.00
2023-03-07T23:20:12.973Z,35.99
2023-03-07T23:22:51.941Z,36.21
2023-03-07T23:25:20.577Z,36.10
2023-03-07T23:27:58.804Z,35.91
2023-03-07T23:30:36.222Z,35.99
2023-03-07T23:33:06.934Z,35.57
2023-03-07T23:39:41.999Z,35.88
2023-03-07T23:42:29.794Z,35.66
2023-03-07T23:45:01.006Z,35.74
2023-03-07T23:47:33.671Z,35.71
2023-03-07T23:50:01.802Z,35.93
2023-03-07T23:52:30.466Z,35.89
2023-03-07T23:55:01.371Z,36.03
2023-03-07T23:57:31.006Z,35.75
2023-03-07T23:59:59.770Z,35.78
